createdAt,value
2023-02-13T00:04:01.354Z,20.13
2023-02-13T00:09:11.390Z,19.00
2023-02-13T00:14:17.798Z,23.27
2023-02-13T00:19:25.756Z,18.85
2023-02-13T00:24:32.201Z,21.70
2023-02-13T00:29:38.816Z,20.38
2023-02-13T00:34:46.821Z,23.23
2023-02-13T00:39:53.312Z,20.98
2023-02-13T00:44:59.931Z,18.10
2023-02-13T00:50:09.337Z,18.48
2023-02-13T00:55:16.715Z,16.75
2023-02-13T01:00:23.749Z,22.42
2023-02-13T01:05:32.053Z,18.58
2023-02-13T01:10:40.066Z,14.53
2023-02-13T01:15:48.940Z,14.73
2023-02-13T01:21:02.524Z,17.52
2023-02-13T01:26:11.031Z,14.70
2023-02-13T01:31:17.584Z,13.73
2023-02-13T01:36:25.675Z,13.20
2023-02-13T01:41:35.638Z,17.08
2023-02-13T01:46:45.809Z,12.77
2023-02-13T01:51:57.293Z,12.10
2023-02-13T01:57:08.588Z,14.23
2023-02-13T02:02:16.288Z,16.83
2023-02-13T02:07:28.493Z,13.20
2023-02-13T02:12:45.608Z,17.23
2023-02-13T02:17:52.182Z,16.00
2023-02-13T02:23:49.536Z,16.02
2023-02-13T02:29:39.578Z,17.52
2023-02-13T02:34:58.684Z,16.73
2023-02-13T02:40:26.693Z,16.02
2023-02-13T02:45:42.856Z,13.35
2023-02-13T02:50:59.985Z,16.05
2023-02-13T02:56:16.875Z,18.60
2023-02-13T03:01:46.890Z,13.07
2023-02-13T03:12:25.750Z,11.73
2023-02-13T03:17:49.700Z,11.30
2023-02-13T03:23:14.398Z,13.52
2023-02-13T03:28:48.816Z,10.88
2023-02-13T03:34:01.499Z,10.55
2023-02-13T03:39:17.295Z,12.32
2023-02-13T03:44:30.770Z,18.23
2023-02-13T03:49:59.780Z,14.20
2023-02-13T03:55:31.423Z,13.35
2023-02-13T04:00:44.771Z,18.42
2023-02-13T04:05:56.596Z,12.88
2023-02-13T04:11:16.307Z,9.95
2023-02-13T04:16:31.147Z,14.73
2023-02-13T04:21:40.608Z,15.30
2023-02-13T04:26:48.926Z,15.82
2023-02-13T04:31:55.303Z,13.20
2023-02-13T04:37:03.157Z,14.25
2023-02-13T04:42:11.198Z,13.13
2023-02-13T04:47:18.076Z,14.35
2023-02-13T04:52:24.869Z,15.80
2023-02-13T04:57:33.185Z,13.50
2023-02-13T05:02:39.783Z,17.23
2023-02-13T05:07:46.186Z,15.90
2023-02-13T05:12:53.844Z,14.35
2023-02-13T05:18:00.185Z,13.23
2023-02-13T05:23:25.315Z,9.50
2023-02-13T05:28:51.651Z,15.32
2023-02-13T05:33:58.366Z,16.02
2023-02-13T05:39:05.300Z,13.10
2023-02-13T05:44:14.286Z,12.02
2023-02-13T05:49:21.429Z,15.02
2023-02-13T05:54:28.184Z,13.48
2023-02-13T05:59:35.995Z,14.00
2023-02-13T06:04:42.521Z,14.15
2023-02-13T06:09:51.334Z,12.95
2023-02-13T06:14:59.212Z,14.57
2023-02-13T06:20:09.522Z,13.50
2023-02-13T06:25:16.059Z,13.80
2023-02-13T06:30:24.988Z,12.65
2023-02-13T06:35:31.564Z,13.93
2023-02-13T06:40:38.517Z,11.95
2023-02-13T06:45:47.462Z,12.88
2023-02-13T06:56:00.717Z,14.02
2023-02-13T07:01:08.814Z,9.57
2023-02-13T07:06:21.222Z,11.40
2023-02-13T07:11:31.931Z,11.32
2023-02-13T07:16:41.783Z,10.60
2023-02-13T07:21:48.195Z,13.95
2023-02-13T07:26:54.558Z,14.13
2023-02-13T07:32:03.696Z,9.07
2023-02-13T07:37:12.103Z,9.53
2023-02-13T07:42:18.634Z,13.10
2023-02-13T07:47:26.410Z,11.95
2023-02-13T07:52:34.466Z,9.50
2023-02-13T07:57:41.271Z,7.07
2023-02-13T08:02:49.335Z,11.85
2023-02-13T08:07:55.754Z,9.55
2023-02-13T08:13:02.520Z,9.38
2023-02-13T08:18:10.148Z,10.23
2023-02-13T08:23:16.632Z,11.43
2023-02-13T08:28:23.823Z,10.02
2023-02-13T08:33:32.535Z,8.73
2023-02-13T08:43:50.912Z,15.15
2023-02-13T08:48:58.853Z,8.75
2023-02-13T08:54:05.425Z,10.48
2023-02-13T08:59:11.675Z,6.47
2023-02-13T09:04:19.885Z,6.85
2023-02-13T09:09:26.308Z,7.28
2023-02-13T09:14:33.941Z,9.98
2023-02-13T09:19:41.663Z,9.00
2023-02-13T09:24:47.994Z,6.20
2023-02-13T09:29:54.487Z,11.55
2023-02-13T09:35:02.388Z,9.32
2023-02-13T09:40:26.533Z,7.20
2023-02-13T09:45:32.949Z,8.25
2023-02-13T09:50:41.376Z,10.30
2023-02-13T09:55:54.059Z,9.32
2023-02-13T10:01:03.708Z,9.52
2023-02-13T10:06:21.590Z,9.00
2023-02-13T10:12:10.180Z,8.65
2023-02-13T10:17:23.706Z,11.63
2023-02-13T10:22:36.242Z,8.68
2023-02-13T10:27:48.657Z,9.38
2023-02-13T10:33:21.876Z,9.32
2023-02-13T10:38:33.419Z,11.75
2023-02-13T10:43:53.998Z,9.25
2023-02-13T10:49:38.988Z,11.73
2023-02-13T10:55:08.907Z,13.75
2023-02-13T11:00:26.871Z,8.82
2023-02-13T11:05:39.335Z,8.05
2023-02-13T11:10:49.356Z,14.07
2023-02-13T11:16:06.132Z,14.20
2023-02-13T11:21:18.642Z,12.82
2023-02-13T11:26:34.507Z,9.32
2023-02-13T11:31:41.034Z,11.13
2023-02-13T11:36:47.676Z,8.57
2023-02-13T11:41:55.757Z,10.18
2023-02-13T11:47:04.499Z,10.52
2023-02-13T11:52:26.552Z,10.38
2023-02-13T11:57:36.959Z,12.68
2023-02-13T12:02:51.070Z,13.13
2023-02-13T12:08:02.975Z,10.85
2023-02-13T12:13:23.539Z,9.95
2023-02-13T12:18:36.950Z,8.63
2023-02-13T12:23:51.432Z,7.78
2023-02-13T12:29:36.340Z,8.70
2023-02-13T12:35:32.120Z,9.90
2023-02-13T12:41:05.617Z,10.00
2023-02-13T12:46:22.213Z,6.70
2023-02-13T12:51:43.418Z,5.50
2023-02-13T12:57:20.272Z,8.10
2023-02-13T13:03:03.321Z,4.88
2023-02-13T13:08:31.150Z,5.40
2023-02-13T13:13:51.563Z,6.53
2023-02-13T13:19:13.126Z,6.13
2023-02-13T13:24:52.181Z,10.73
2023-02-13T13:30:01.134Z,7.18
2023-02-13T13:35:16.101Z,9.80
2023-02-13T13:40:39.757Z,7.25
2023-02-13T13:45:54.000Z,8.38
2023-02-13T13:51:02.584Z,8.32
2023-02-13T13:56:10.213Z,7.28
2023-02-13T14:01:30.981Z,6.78
2023-02-13T14:07:23.597Z,9.07
2023-02-13T14:12:50.237Z,7.82
2023-02-13T14:17:57.840Z,8.70
2023-02-13T14:23:37.322Z,6.88
2023-02-13T14:28:56.756Z,7.10
2023-02-13T14:34:09.076Z,10.30
2023-02-13T14:39:28.542Z,6.75
2023-02-13T14:44:44.931Z,7.85
2023-02-13T14:49:53.374Z,9.30
2023-02-13T14:55:04.869Z,7.40
2023-02-13T15:00:29.357Z,9.20
2023-02-13T15:05:37.907Z,11.23
2023-02-13T15:10:50.414Z,8.87
2023-02-13T15:16:00.750Z,10.80
2023-02-13T15:21:07.988Z,10.73
2023-02-13T15:26:24.409Z,8.23
2023-02-13T15:31:35.240Z,8.60
2023-02-13T15:36:44.008Z,6.95
2023-02-13T15:41:56.184Z,9.52
2023-02-13T15:47:09.392Z,10.23
2023-02-13T15:52:22.626Z,9.05
2023-02-13T15:57:31.783Z,7.53
2023-02-13T16:02:48.187Z,9.55
2023-02-13T16:08:00.150Z,9.07
2023-02-13T16:13:18.891Z,9.68
2023-02-13T16:18:28.378Z,13.23
2023-02-13T16:23:36.008Z,13.32
2023-02-13T16:28:50.072Z,6.88
2023-02-13T16:33:58.244Z,10.73
2023-02-13T16:39:21.722Z,7.77
2023-02-13T16:44:40.724Z,6.53
2023-02-13T16:49:56.810Z,7.28
2023-02-13T16:55:07.578Z,8.55
2023-02-13T17:00:29.369Z,7.82
2023-02-13T17:05:37.549Z,9.75
2023-02-13T17:11:03.280Z,8.48
2023-02-13T17:16:14.806Z,10.10
2023-02-13T17:21:26.606Z,12.70
2023-02-13T17:26:36.713Z,8.85
2023-02-13T17:31:50.275Z,11.57
2023-02-13T17:37:01.012Z,13.00
2023-02-13T17:42:13.936Z,10.23
2023-02-13T17:47:24.816Z,11.05
2023-02-13T17:52:36.330Z,12.30
2023-02-13T17:57:44.594Z,13.85
2023-02-13T18:02:54.915Z,9.82
2023-02-13T18:08:05.217Z,12.55
2023-02-13T18:13:15.408Z,12.07
2023-02-13T18:18:27.098Z,12.57
2023-02-13T18:23:39.030Z,13.73
2023-02-13T18:28:47.437Z,18.20
2023-02-13T18:39:12.443Z,8.40
2023-02-13T18:44:28.423Z,10.75
2023-02-13T18:49:40.456Z,12.05
2023-02-13T18:54:49.176Z,12.02
2023-02-13T18:59:58.584Z,11.00
2023-02-13T19:05:13.805Z,10.50
2023-02-13T19:10:24.059Z,7.22
2023-02-13T19:15:32.760Z,9.32
2023-02-13T19:20:44.836Z,6.63
2023-02-13T19:25:59.762Z,9.50
2023-02-13T19:31:15.151Z,7.93
2023-02-13T19:36:29.600Z,7.43
2023-02-13T19:41:41.462Z,7.43
2023-02-13T19:46:56.055Z,7.15
2023-02-13T19:52:07.939Z,7.72
2023-02-13T19:57:19.156Z,7.45
2023-02-13T20:02:29.459Z,9.05
2023-02-13T20:07:48.549Z,7.18
2023-02-13T20:13:01.563Z,10.02
2023-02-13T20:18:11.406Z,9.20
2023-02-13T20:23:24.402Z,10.73
2023-02-13T20:28:35.417Z,8.10
2023-02-13T20:33:45.773Z,7.22
2023-02-13T20:39:01.059Z,9.30
2023-02-13T20:44:15.373Z,12.13
2023-02-13T20:49:27.013Z,11.85
2023-02-13T20:54:39.554Z,11.77
2023-02-13T20:59:49.853Z,6.88
2023-02-13T21:04:59.416Z,10.00
2023-02-13T21:10:12.846Z,9.57
2023-02-13T21:15:25.170Z,11.85
2023-02-13T21:20:35.122Z,8.80
2023-02-13T21:25:47.243Z,8.95
2023-02-13T21:30:58.410Z,10.98
2023-02-13T21:36:10.408Z,9.77
2023-02-13T21:41:20.431Z,6.53
2023-02-13T21:46:31.025Z,7.93
2023-02-13T21:51:38.912Z,7.53
2023-02-13T21:56:47.640Z,9.13
2023-02-13T22:01:55.248Z,9.13
2023-02-13T22:07:02.238Z,9.20
2023-02-13T22:12:10.581Z,7.57
2023-02-13T22:17:17.237Z,7.23
2023-02-13T22:22:25.817Z,8.27
2023-02-13T22:27:34.132Z,10.70
2023-02-13T22:32:41.903Z,11.13
2023-02-13T22:37:48.268Z,7.90
2023-02-13T22:42:56.331Z,6.82
2023-02-13T22:48:03.035Z,9.70
2023-02-13T22:53:09.663Z,10.05
2023-02-13T22:58:17.879Z,8.85
2023-02-13T23:03:25.144Z,7.55
2023-02-13T23:08:32.494Z,10.25
2023-02-13T23:13:40.474Z,10.13
2023-02-13T23:18:51.595Z,8.50
2023-02-13T23:23:58.010Z,7.05
2023-02-13T23:29:06.340Z,9.05
2023-02-13T23:34:13.139Z,8.23
2023-02-13T23:39:21.476Z,9.52
2023-02-13T23:44:29.464Z,8.70
2023-02-13T23:49:36.025Z,8.27
2023-02-13T23:54:43.144Z,9.77
2023-02-13T23:59:52.707Z,7.80
